createdAt,value
2022-10-01T00:01:06.721Z,12.85
2022-10-01T00:03:35.170Z,12.84
2022-10-01T00:06:17.639Z,12.81
2022-10-01T00:08:48.762Z,12.61
2022-10-01T00:11:24.735Z,12.74
2022-10-01T00:13:52.789Z,12.73
2022-10-01T00:16:21.816Z,12.74
2022-10-01T00:18:49.925Z,12.69
2022-10-01T00:21:21.928Z,12.68
2022-10-01T00:23:53.265Z,12.63
2022-10-01T00:26:23.281Z,12.54
2022-10-01T00:28:54.793Z,12.46
2022-10-01T00:31:21.566Z,12.31
2022-10-01T00:33:48.500Z,12.30
2022-10-01T00:36:15.048Z,12.25
2022-10-01T00:38:42.244Z,12.21
2022-10-01T00:41:09.599Z,12.10
2022-10-01T00:43:40.118Z,12.09
2022-10-01T00:46:13.413Z,12.00
2022-10-01T00:49:03.784Z,11.91
2022-10-01T00:51:34.144Z,11.87
2022-10-01T00:54:12.012Z,11.76
2022-10-01T00:56:39.139Z,11.78
2022-10-01T00:59:06.790Z,11.79
2022-10-01T01:01:37.477Z,11.67
2022-10-01T01:04:04.589Z,11.66
2022-10-01T01:06:31.056Z,11.60
2022-10-01T01:08:57.554Z,11.56
2022-10-01T01:11:45.713Z,11.61
2022-10-01T01:14:18.814Z,11.54
2022-10-01T01:17:11.615Z,11.50
2022-10-01T01:20:16.810Z,11.54
2022-10-01T01:22:55.000Z,11.48
2022-10-01T01:25:30.509Z,11.46
2022-10-01T01:28:13.565Z,11.45
2022-10-01T01:30:41.371Z,11.44
2022-10-01T01:33:15.712Z,11.47
2022-10-01T01:35:47.885Z,11.45
2022-10-01T01:38:20.251Z,11.42
2022-10-01T01:40:51.673Z,11.38
2022-10-01T01:43:24.171Z,11.36
2022-10-01T01:45:55.181Z,11.44
2022-10-01T01:48:24.214Z,11.39
2022-10-01T01:51:17.215Z,11.42
2022-10-01T01:53:43.871Z,11.38
2022-10-01T01:56:10.685Z,11.35
2022-10-01T01:58:38.520Z,11.31
2022-10-01T02:01:05.343Z,11.30
2022-10-01T02:03:35.103Z,11.24
2022-10-01T02:06:42.968Z,11.32
2022-10-01T02:09:31.198Z,11.24
2022-10-01T02:12:30.300Z,11.18
2022-10-01T02:15:36.121Z,11.16
2022-10-01T02:18:13.474Z,11.17
2022-10-01T02:20:47.809Z,11.16
2022-10-01T02:23:29.116Z,11.11
2022-10-01T02:26:00.451Z,11.10
2022-10-01T02:28:31.464Z,11.16
2022-10-01T02:31:01.081Z,11.13
2022-10-01T02:33:32.518Z,11.11
2022-10-01T02:36:01.138Z,11.14
2022-10-01T02:38:28.858Z,11.09
2022-10-01T02:41:00.853Z,11.16
2022-10-01T02:43:32.193Z,11.09
2022-10-01T02:46:07.477Z,11.11
2022-10-01T02:48:34.255Z,11.04
2022-10-01T02:51:15.817Z,11.04
2022-10-01T02:53:47.306Z,11.05
2022-10-01T02:56:37.232Z,11.06
2022-10-01T02:59:07.441Z,11.06
2022-10-01T03:01:35.861Z,11.12
2022-10-01T03:04:02.625Z,11.11
2022-10-01T03:06:29.076Z,11.16
2022-10-01T03:08:57.363Z,11.14
2022-10-01T03:11:23.791Z,11.09
2022-10-01T03:13:50.188Z,11.07
2022-10-01T03:16:16.684Z,11.08
2022-10-01T03:18:43.133Z,11.10
2022-10-01T03:21:09.570Z,11.08
2022-10-01T03:23:36.017Z,11.10
2022-10-01T03:26:02.439Z,11.05
2022-10-01T03:28:28.888Z,11.05
2022-10-01T03:31:08.017Z,11.07
2022-10-01T03:33:35.984Z,10.98
2022-10-01T03:36:05.642Z,11.03
2022-10-01T03:38:32.104Z,10.97
2022-10-01T03:40:58.582Z,11.06
2022-10-01T03:43:28.910Z,11.07
2022-10-01T03:45:56.589Z,11.11
2022-10-01T03:48:23.433Z,11.08
2022-10-01T03:50:57.653Z,11.12
2022-10-01T03:53:26.382Z,11.15
2022-10-01T03:55:53.658Z,11.16
2022-10-01T03:58:20.230Z,11.14
2022-10-01T04:00:50.309Z,11.21
2022-10-01T04:03:17.707Z,11.31
2022-10-01T04:05:45.358Z,11.28
2022-10-01T04:08:12.914Z,11.39
2022-10-01T04:10:39.346Z,11.45
2022-10-01T04:13:06.811Z,11.47
2022-10-01T04:15:33.464Z,11.44
2022-10-01T04:18:02.191Z,11.43
2022-10-01T04:20:28.638Z,11.51
2022-10-01T04:22:55.069Z,11.56
2022-10-01T04:25:21.539Z,11.55
2022-10-01T04:27:59.845Z,11.62
2022-10-01T04:30:29.018Z,11.62
2022-10-01T04:32:55.516Z,11.60
2022-10-01T04:35:22.680Z,11.68
2022-10-01T04:37:56.672Z,11.72
2022-10-01T04:40:23.387Z,11.77
2022-10-01T04:42:49.848Z,11.84
2022-10-01T04:45:16.372Z,11.95
2022-10-01T04:47:54.157Z,11.95
2022-10-01T04:50:21.780Z,11.97
2022-10-01T04:52:48.449Z,11.92
2022-10-01T04:55:16.277Z,12.00
2022-10-01T04:57:44.060Z,11.98
2022-10-01T05:00:13.854Z,11.91
2022-10-01T05:02:40.524Z,11.92
2022-10-01T05:05:08.071Z,11.88
2022-10-01T05:07:35.666Z,11.89
2022-10-01T05:10:02.244Z,11.96
2022-10-01T05:12:28.778Z,11.97
2022-10-01T05:14:56.198Z,12.02
2022-10-01T05:17:23.044Z,12.05
2022-10-01T05:19:50.480Z,12.05
2022-10-01T05:22:16.992Z,12.08
2022-10-01T05:24:43.707Z,12.09
2022-10-01T05:27:12.110Z,12.08
2022-10-01T05:29:41.976Z,12.01
2022-10-01T05:32:10.071Z,12.10
2022-10-01T05:34:36.677Z,12.02
2022-10-01T05:37:03.376Z,12.07
2022-10-01T05:39:30.596Z,12.09
2022-10-01T05:41:57.830Z,12.10
2022-10-01T05:44:25.327Z,12.12
2022-10-01T05:46:54.720Z,12.12
2022-10-01T05:49:24.403Z,12.15
2022-10-01T05:51:50.906Z,12.17
2022-10-01T05:54:19.491Z,12.18
2022-10-01T05:56:46.200Z,12.23
2022-10-01T05:59:12.616Z,12.23
2022-10-01T06:01:39.086Z,12.23
2022-10-01T06:04:05.582Z,12.25
2022-10-01T06:06:32.089Z,12.25
2022-10-01T06:08:59.410Z,12.29
2022-10-01T06:11:26.868Z,12.31
2022-10-01T06:13:53.311Z,12.30
2022-10-01T06:16:20.924Z,12.32
2022-10-01T06:18:49.245Z,12.31
2022-10-01T06:21:15.891Z,12.32
2022-10-01T06:23:44.339Z,12.35
2022-10-01T06:26:10.736Z,12.33
2022-10-01T06:28:37.166Z,12.35
2022-10-01T06:31:04.293Z,12.29
2022-10-01T06:33:30.887Z,12.33
2022-10-01T06:35:57.356Z,12.30
2022-10-01T06:38:25.419Z,11.99
2022-10-01T06:40:57.473Z,11.51
2022-10-01T06:43:29.215Z,10.56
2022-10-01T06:45:56.312Z,9.44
2022-10-01T06:48:23.381Z,9.00
2022-10-01T06:50:52.182Z,9.16
2022-10-01T06:53:18.887Z,9.20
2022-10-01T06:55:46.182Z,9.27
2022-10-01T06:58:17.311Z,9.34
2022-10-01T07:00:45.038Z,9.46
2022-10-01T07:03:18.274Z,9.56
2022-10-01T07:05:46.329Z,9.54
2022-10-01T07:08:13.301Z,9.37
2022-10-01T07:10:40.632Z,9.64
2022-10-01T07:13:13.377Z,9.63
2022-10-01T07:15:40.170Z,9.84
2022-10-01T07:18:09.451Z,10.23
2022-10-01T07:20:39.705Z,10.25
2022-10-01T07:23:10.196Z,10.20
2022-10-01T07:25:38.892Z,10.07
2022-10-01T07:28:07.105Z,10.48
2022-10-01T07:30:34.218Z,10.48
2022-10-01T07:33:00.700Z,10.47
2022-10-01T07:35:27.245Z,10.44
2022-10-01T07:37:55.326Z,10.46
2022-10-01T07:40:22.438Z,10.54
2022-10-01T07:42:56.970Z,10.29
2022-10-01T07:45:24.044Z,10.56
2022-10-01T07:47:55.522Z,10.71
2022-10-01T07:50:22.335Z,10.47
2022-10-01T07:52:56.199Z,10.41
2022-10-01T07:55:24.351Z,10.35
2022-10-01T07:57:55.477Z,10.28
2022-10-01T08:00:23.448Z,10.40
2022-10-01T08:02:53.558Z,10.50
2022-10-01T08:05:22.228Z,11.13
2022-10-01T08:07:49.561Z,11.52
2022-10-01T08:10:17.989Z,11.92
2022-10-01T08:12:44.956Z,12.19
2022-10-01T08:15:14.301Z,12.38
2022-10-01T08:17:41.475Z,12.54
2022-10-01T08:20:10.724Z,12.67
2022-10-01T08:22:41.667Z,12.74
2022-10-01T08:25:09.087Z,12.69
2022-10-01T08:27:35.662Z,12.86
2022-10-01T08:30:02.219Z,12.94
2022-10-01T08:32:28.914Z,13.03
2022-10-01T08:34:57.508Z,13.02
2022-10-01T08:37:27.126Z,13.10
2022-10-01T08:39:54.654Z,13.18
2022-10-01T08:42:38.171Z,13.26
2022-10-01T08:45:20.134Z,13.28
2022-10-01T08:48:02.488Z,13.23
2022-10-01T08:50:38.863Z,13.43
2022-10-01T08:53:11.756Z,13.53
2022-10-01T08:55:40.141Z,13.61
2022-10-01T08:58:10.814Z,13.70
2022-10-01T09:00:43.212Z,13.82
2022-10-01T09:03:13.947Z,13.92
2022-10-01T09:06:18.234Z,14.01
2022-10-01T09:09:03.182Z,14.00
2022-10-01T09:11:52.855Z,14.07
2022-10-01T09:14:25.284Z,14.03
2022-10-01T09:17:11.434Z,14.01
2022-10-01T09:19:56.928Z,13.76
2022-10-01T09:22:38.343Z,13.65
2022-10-01T09:25:14.467Z,13.55
2022-10-01T09:27:41.047Z,13.61
2022-10-01T09:30:14.766Z,13.65
2022-10-01T09:32:51.416Z,13.70
2022-10-01T09:35:21.092Z,13.72
2022-10-01T09:37:57.691Z,13.72
2022-10-01T09:40:34.959Z,13.75
2022-10-01T09:43:04.092Z,13.72
2022-10-01T09:45:31.256Z,13.79
2022-10-01T09:48:05.204Z,13.87
2022-10-01T09:50:41.061Z,13.93
2022-10-01T09:53:15.733Z,13.98
2022-10-01T09:55:52.788Z,14.03
2022-10-01T09:58:23.042Z,14.26
2022-10-01T10:00:51.660Z,14.52
2022-10-01T10:03:27.230Z,14.82
2022-10-01T10:05:54.983Z,15.09
2022-10-01T10:08:31.870Z,15.16
2022-10-01T10:11:01.425Z,15.32
2022-10-01T10:13:39.315Z,15.40
2022-10-01T10:16:10.629Z,15.65
2022-10-01T10:18:40.045Z,15.99
2022-10-01T10:21:16.275Z,16.56
2022-10-01T10:23:53.152Z,17.10
2022-10-01T10:26:31.950Z,17.39
2022-10-01T10:29:03.379Z,17.75
2022-10-01T10:31:40.666Z,18.13
2022-10-01T10:34:49.025Z,18.62
2022-10-01T10:37:26.284Z,19.00
2022-10-01T10:39:53.976Z,19.20
2022-10-01T10:42:22.635Z,19.33
2022-10-01T10:44:51.285Z,19.56
2022-10-01T10:47:20.742Z,19.93
2022-10-01T10:49:55.000Z,20.02
2022-10-01T10:52:33.172Z,20.19
2022-10-01T10:55:01.776Z,20.47
2022-10-01T10:57:34.395Z,20.64
2022-10-01T11:00:22.653Z,20.81
2022-10-01T11:03:01.999Z,20.43
2022-10-01T11:05:32.069Z,20.08
2022-10-01T11:08:00.889Z,20.01
2022-10-01T11:10:47.461Z,19.63
2022-10-01T11:13:33.490Z,19.39
2022-10-01T11:16:28.042Z,18.98
2022-10-01T11:19:09.778Z,18.88
2022-10-01T11:21:58.074Z,18.85
2022-10-01T11:24:56.092Z,18.54
2022-10-01T11:27:45.736Z,18.30
2022-10-01T11:30:24.940Z,18.11
2022-10-01T11:33:12.842Z,18.10
2022-10-01T11:35:49.304Z,17.96
2022-10-01T11:38:15.663Z,17.84
2022-10-01T11:40:45.594Z,17.76
2022-10-01T11:43:27.293Z,17.61
2022-10-01T11:45:59.966Z,17.72
2022-10-01T11:48:33.184Z,17.87
2022-10-01T11:51:12.461Z,17.83
2022-10-01T11:53:45.455Z,17.45
2022-10-01T11:56:42.881Z,17.38
2022-10-01T11:59:22.519Z,17.24
2022-10-01T12:02:03.220Z,17.05
2022-10-01T12:04:41.959Z,17.00
2022-10-01T12:07:15.321Z,16.89
2022-10-01T12:10:00.677Z,16.71
2022-10-01T12:12:36.928Z,16.88
2022-10-01T12:15:16.419Z,16.90
2022-10-01T12:17:45.699Z,17.02
2022-10-01T12:20:34.202Z,17.46
2022-10-01T12:23:05.411Z,17.76
2022-10-01T12:25:57.243Z,17.62
2022-10-01T12:28:42.613Z,17.62
2022-10-01T12:31:49.529Z,18.23
2022-10-01T12:34:37.818Z,18.42
2022-10-01T12:37:19.647Z,18.72
2022-10-01T12:40:07.087Z,18.84
2022-10-01T12:43:18.426Z,19.07
2022-10-01T12:46:15.462Z,19.17
2022-10-01T12:49:10.762Z,19.15
2022-10-01T12:51:40.222Z,19.49
2022-10-01T12:54:33.615Z,19.67
2022-10-01T12:57:23.129Z,19.68
2022-10-01T13:00:05.095Z,19.57
2022-10-01T13:02:48.537Z,19.83
2022-10-01T13:05:30.219Z,19.95
2022-10-01T13:08:09.181Z,20.09
2022-10-01T13:11:00.391Z,20.34
2022-10-01T13:13:28.225Z,19.92
2022-10-01T13:16:07.036Z,20.19
2022-10-01T13:18:51.460Z,19.63
2022-10-01T13:22:00.147Z,19.57
2022-10-01T13:24:49.904Z,19.52
2022-10-01T13:27:35.851Z,19.64
2022-10-01T13:30:12.490Z,19.31
2022-10-01T13:33:21.425Z,19.28
2022-10-01T13:35:54.948Z,19.26
2022-10-01T13:38:30.230Z,19.42
2022-10-01T13:41:00.125Z,19.37
2022-10-01T13:43:27.423Z,19.55
2022-10-01T13:45:55.480Z,19.71
2022-10-01T13:48:30.550Z,19.95
2022-10-01T13:51:10.706Z,20.15
2022-10-01T13:53:43.201Z,20.24
2022-10-01T13:56:13.041Z,20.31
2022-10-01T13:58:41.697Z,20.32
2022-10-01T14:01:21.543Z,20.38
2022-10-01T14:04:08.803Z,20.48
2022-10-01T14:06:35.506Z,20.49
2022-10-01T14:09:20.602Z,20.43
2022-10-01T14:12:32.690Z,20.47
2022-10-01T14:15:20.906Z,20.56
2022-10-01T14:17:52.987Z,20.79
2022-10-01T14:20:24.023Z,20.80
2022-10-01T14:23:05.700Z,20.77
2022-10-01T14:25:32.058Z,20.94
2022-10-01T14:28:26.995Z,21.08
2022-10-01T14:31:05.033Z,21.20
2022-10-01T14:33:51.399Z,21.06
2022-10-01T14:36:32.346Z,20.96
2022-10-01T14:39:13.864Z,21.14
2022-10-01T14:41:40.392Z,21.30
2022-10-01T14:44:31.621Z,21.29
2022-10-01T14:46:59.793Z,21.37
2022-10-01T14:49:32.260Z,21.31
2022-10-01T14:52:02.650Z,20.96
2022-10-01T14:54:31.099Z,20.69
2022-10-01T14:56:57.709Z,20.63
2022-10-01T14:59:35.686Z,20.65
2022-10-01T15:02:16.017Z,20.67
2022-10-01T15:04:51.533Z,20.75
2022-10-01T15:07:18.635Z,20.56
2022-10-01T15:09:46.338Z,20.43
2022-10-01T15:12:19.015Z,20.26
2022-10-01T15:14:47.160Z,20.31
2022-10-01T15:17:21.294Z,20.33
2022-10-01T15:19:52.203Z,20.56
2022-10-01T15:22:27.690Z,20.52
2022-10-01T15:24:59.564Z,20.43
2022-10-01T15:27:26.382Z,20.52
2022-10-01T15:29:56.883Z,20.43
2022-10-01T15:32:25.522Z,20.41
2022-10-01T15:34:55.027Z,20.28
2022-10-01T15:37:30.925Z,20.01
2022-10-01T15:39:59.104Z,19.81
2022-10-01T15:42:32.763Z,19.70
2022-10-01T15:45:08.271Z,19.53
2022-10-01T15:47:50.084Z,19.51
2022-10-01T15:50:21.647Z,19.42
2022-10-01T15:52:54.164Z,19.22
2022-10-01T15:55:26.477Z,19.10
2022-10-01T15:57:56.029Z,18.94
2022-10-01T16:00:32.081Z,18.85
2022-10-01T16:02:59.028Z,18.79
2022-10-01T16:05:38.273Z,18.75
2022-10-01T16:08:05.556Z,18.64
2022-10-01T16:10:33.697Z,18.50
2022-10-01T16:13:00.517Z,18.45
2022-10-01T16:15:30.773Z,18.41
2022-10-01T16:18:02.447Z,18.29
2022-10-01T16:20:37.399Z,18.21
2022-10-01T16:23:33.783Z,18.03
2022-10-01T16:26:01.003Z,17.30
2022-10-01T16:28:33.260Z,16.05
2022-10-01T16:31:00.498Z,13.95
2022-10-01T16:33:27.040Z,12.87
2022-10-01T16:36:08.514Z,12.94
2022-10-01T16:38:34.984Z,12.82
2022-10-01T16:41:02.367Z,13.82
2022-10-01T16:43:28.803Z,14.06
2022-10-01T16:45:55.351Z,13.57
2022-10-01T16:48:24.668Z,13.21
2022-10-01T16:50:53.713Z,13.07
2022-10-01T16:53:20.837Z,12.79
2022-10-01T16:55:47.348Z,12.77
2022-10-01T16:58:14.054Z,12.88
2022-10-01T17:00:40.608Z,12.87
2022-10-01T17:03:13.930Z,12.81
2022-10-01T17:05:40.397Z,12.66
2022-10-01T17:08:11.361Z,12.55
2022-10-01T17:10:42.877Z,12.50
2022-10-01T17:13:10.148Z,12.29
2022-10-01T17:15:36.630Z,11.92
2022-10-01T17:18:03.178Z,11.77
2022-10-01T17:20:30.456Z,11.96
2022-10-01T17:22:58.252Z,12.16
2022-10-01T17:25:32.140Z,11.99
2022-10-01T17:28:01.543Z,11.83
2022-10-01T17:30:29.299Z,11.64
2022-10-01T17:32:57.297Z,12.52
2022-10-01T17:35:23.948Z,13.20
2022-10-01T17:37:50.397Z,13.64
2022-10-01T17:40:16.935Z,14.03
2022-10-01T17:42:43.391Z,14.27
2022-10-01T17:45:12.615Z,14.47
2022-10-01T17:47:46.945Z,14.61
2022-10-01T17:50:15.258Z,14.74
2022-10-01T17:52:41.877Z,14.84
2022-10-01T17:55:08.931Z,14.92
2022-10-01T17:57:35.382Z,14.98
2022-10-01T18:00:02.434Z,15.02
2022-10-01T18:02:41.470Z,15.04
2022-10-01T18:05:12.496Z,15.06
2022-10-01T18:07:39.540Z,15.09
2022-10-01T18:10:08.829Z,15.09
2022-10-01T18:12:35.441Z,15.10
2022-10-01T18:15:02.238Z,15.10
2022-10-01T18:17:29.231Z,15.08
2022-10-01T18:19:57.061Z,15.09
2022-10-01T18:22:23.684Z,15.08
2022-10-01T18:24:50.232Z,15.07
2022-10-01T18:27:16.901Z,15.06
2022-10-01T18:29:43.469Z,15.05
2022-10-01T18:32:22.684Z,15.00
2022-10-01T18:34:54.491Z,14.98
2022-10-01T18:37:28.296Z,15.00
2022-10-01T18:40:18.414Z,14.96
2022-10-01T18:43:06.766Z,14.91
2022-10-01T18:45:41.197Z,14.85
2022-10-01T18:48:17.102Z,14.79
2022-10-01T18:50:47.417Z,14.73
2022-10-01T18:53:21.134Z,14.62
2022-10-01T18:56:18.056Z,14.52
2022-10-01T18:59:15.517Z,14.39
2022-10-01T19:01:57.188Z,14.36
2022-10-01T19:04:41.896Z,14.32
2022-10-01T19:07:39.786Z,14.37
2022-10-01T19:10:45.954Z,14.30
2022-10-01T19:13:29.214Z,14.18
2022-10-01T19:16:38.016Z,14.12
2022-10-01T19:19:19.605Z,14.05
2022-10-01T19:21:49.451Z,14.02
2022-10-01T19:24:25.781Z,13.97
2022-10-01T19:26:55.172Z,13.88
2022-10-01T19:29:58.962Z,13.80
2022-10-01T19:32:34.635Z,13.78
2022-10-01T19:35:12.019Z,13.71
2022-10-01T19:38:02.599Z,13.60
2022-10-01T19:40:36.804Z,13.57
2022-10-01T19:43:25.268Z,13.50
2022-10-01T19:46:18.020Z,13.44
2022-10-01T19:49:08.716Z,13.40
2022-10-01T19:51:46.402Z,13.37
2022-10-01T19:54:18.265Z,13.37
2022-10-01T19:56:47.744Z,13.38
2022-10-01T19:59:19.721Z,13.36
2022-10-01T20:01:51.649Z,13.36
2022-10-01T20:04:40.696Z,13.36
2022-10-01T20:07:15.823Z,13.34
2022-10-01T20:09:46.400Z,13.32
2022-10-01T20:12:24.726Z,13.29
2022-10-01T20:15:09.485Z,13.25
2022-10-01T20:18:13.157Z,13.23
2022-10-01T20:21:14.007Z,13.24
2022-10-01T20:23:54.333Z,13.21
2022-10-01T20:26:29.905Z,13.21
2022-10-01T20:29:20.308Z,13.17
2022-10-01T20:32:15.758Z,13.13
2022-10-01T20:35:01.531Z,13.12
2022-10-01T20:37:38.066Z,13.09
2022-10-01T20:40:04.565Z,13.03
2022-10-01T20:42:38.419Z,13.05
2022-10-01T20:45:14.348Z,13.04
2022-10-01T20:47:49.756Z,13.02
2022-10-01T20:50:24.752Z,13.03
2022-10-01T20:53:17.610Z,13.02
2022-10-01T20:55:50.925Z,12.98
2022-10-01T20:58:25.292Z,12.96
2022-10-01T21:00:59.549Z,12.95
2022-10-01T21:03:39.112Z,12.94
2022-10-01T21:06:13.672Z,12.91
2022-10-01T21:08:57.101Z,12.91
2022-10-01T21:11:31.767Z,12.88
2022-10-01T21:14:07.268Z,12.87
2022-10-01T21:16:46.227Z,12.90
2022-10-01T21:19:42.238Z,12.90
2022-10-01T21:22:55.177Z,12.90
2022-10-01T21:25:34.523Z,12.93
2022-10-01T21:28:29.006Z,12.92
2022-10-01T21:31:19.609Z,12.91
2022-10-01T21:33:53.982Z,12.91
2022-10-01T21:36:37.801Z,12.91
2022-10-01T21:39:20.997Z,12.91
2022-10-01T21:42:01.592Z,12.90
2022-10-01T21:44:57.188Z,12.87
2022-10-01T21:47:49.778Z,12.86
2022-10-01T21:50:28.336Z,12.85
2022-10-01T21:53:13.777Z,12.83
2022-10-01T21:55:52.637Z,12.83
2022-10-01T21:58:54.601Z,12.83
2022-10-01T22:01:27.354Z,12.82
2022-10-01T22:04:17.918Z,12.82
2022-10-01T22:07:01.932Z,12.82
2022-10-01T22:09:39.112Z,12.79
2022-10-01T22:12:07.209Z,12.78
2022-10-01T22:14:33.664Z,12.76
2022-10-01T22:17:15.595Z,12.77
2022-10-01T22:19:46.643Z,12.78
2022-10-01T22:22:20.918Z,12.75
2022-10-01T22:24:51.176Z,12.75
2022-10-01T22:27:27.648Z,12.77
2022-10-01T22:30:01.973Z,12.79
2022-10-01T22:32:33.476Z,12.83
2022-10-01T22:35:06.894Z,12.87
2022-10-01T22:37:53.915Z,12.91
2022-10-01T22:40:35.937Z,12.95
2022-10-01T22:43:11.632Z,12.97
2022-10-01T22:46:08.945Z,12.98
2022-10-01T22:48:53.243Z,13.01
2022-10-01T22:51:31.969Z,13.04
2022-10-01T22:54:13.784Z,13.01
2022-10-01T22:56:52.436Z,12.99
2022-10-01T22:59:32.549Z,13.02
2022-10-01T23:02:17.239Z,13.02
2022-10-01T23:05:27.784Z,13.05
2022-10-01T23:08:08.390Z,13.09
2022-10-01T23:11:00.023Z,13.10
2022-10-01T23:13:54.845Z,13.12
2022-10-01T23:16:30.119Z,13.15
2022-10-01T23:19:20.837Z,13.18
2022-10-01T23:22:00.329Z,13.21
2022-10-01T23:24:41.246Z,13.21
2022-10-01T23:27:15.596Z,13.22
2022-10-01T23:30:09.138Z,13.24
2022-10-01T23:32:50.145Z,13.23
2022-10-01T23:35:22.279Z,13.27
2022-10-01T23:37:49.949Z,13.30
2022-10-01T23:40:23.100Z,13.30
2022-10-01T23:43:00.479Z,13.28
2022-10-01T23:45:56.926Z,13.26
2022-10-01T23:48:48.376Z,13.26
2022-10-01T23:51:30.652Z,13.25
2022-10-01T23:54:13.223Z,13.30
2022-10-01T23:56:49.822Z,13.30
2022-10-01T23:59:19.802Z,13.32
